Time;durP1;ratioP1;P1;durP2;ratioP2;P2;SDS_P1;SDS_P2;PMS_P1;PMS_P2;Temp;Humidity;BMP_temperature;BMP_pressure;BME280_temperature;BME280_humidity;BME280_pressure;Samples;Min_cycle;Max_cycle;Signal;HPM_P1;HPM_P2
2023/08/29 00:01:26;;;;;;;7.97;6.20;;;13.30;99.90;;;;;;5084713;28;20223;-83
2023/08/29 00:03:55;;;;;;;8.85;6.40;;;13.30;99.90;;;;;;5084030;28;20205;-83
2023/08/29 00:06:21;;;;;;;6.20;5.60;;;13.30;99.90;;;;;;5084263;28;20212;-83
2023/08/29 00:08:46;;;;;;;8.07;5.43;;;13.20;99.90;;;;;;5084586;28;20182;-83
2023/08/29 00:11:12;;;;;;;6.78;6.07;;;13.20;99.90;;;;;;5084130;28;20193;-83
2023/08/29 00:13:38;;;;;;;7.30;6.60;;;13.20;99.90;;;;;;5084125;28;20659;-83
2023/08/29 00:16:03;;;;;;;10.50;7.55;;;13.10;99.90;;;;;;5084226;28;20177;-83
2023/08/29 00:18:29;;;;;;;10.23;8.35;;;13.10;99.90;;;;;;5085310;28;20603;-83
2023/08/29 00:20:55;;;;;;;13.23;9.45;;;13.00;99.90;;;;;;5084185;28;20205;-83
2023/08/29 00:23:21;;;;;;;10.75;8.38;;;12.80;99.90;;;;;;5083051;28;20197;-83
2023/08/29 00:25:46;;;;;;;9.50;8.00;;;12.80;99.90;;;;;;5082740;28;20723;-83
2023/08/29 00:28:13;;;;;;;9.27;7.82;;;12.80;99.90;;;;;;5083390;28;20200;-83
2023/08/29 00:30:39;;;;;;;9.43;7.13;;;12.80;99.90;;;;;;5082700;28;20205;-83
2023/08/29 00:33:08;;;;;;;8.25;7.35;;;12.80;99.90;;;;;;5083935;28;20552;-83
2023/08/29 00:35:34;;;;;;;8.13;7.07;;;12.80;99.90;;;;;;5083320;28;20181;-83
2023/08/29 00:38:00;;;;;;;11.35;7.55;;;12.70;99.90;;;;;;5083565;28;20209;-83
2023/08/29 00:40:32;;;;;;;7.60;5.97;;;12.70;99.90;;;;;;5082680;28;20202;-83
2023/08/29 00:43:05;;;;;;;8.93;6.80;;;12.70;99.90;;;;;;5083258;28;20250;-83
2023/08/29 00:45:35;;;;;;;7.70;5.78;;;12.60;99.90;;;;;;5082066;28;20545;-83
2023/08/29 00:48:01;;;;;;;6.85;6.15;;;12.60;99.90;;;;;;5082694;28;20166;-83
2023/08/29 00:50:27;;;;;;;7.40;6.30;;;12.60;99.90;;;;;;5082865;28;20273;-83
2023/08/29 00:52:58;;;;;;;8.18;6.75;;;12.60;99.90;;;;;;5081355;28;20178;-83
2023/08/29 00:55:25;;;;;;;8.00;6.47;;;12.60;99.90;;;;;;5080871;28;20665;-83
2023/08/29 00:57:56;;;;;;;7.68;6.88;;;12.60;99.90;;;;;;5080346;28;20185;-83
2023/08/29 01:00:30;;;;;;;10.80;6.90;;;12.60;99.90;;;;;;5080225;28;20201;-83
2023/08/29 01:02:56;;;;;;;7.72;6.50;;;12.50;99.90;;;;;;5079175;28;20833;-82
2023/08/29 01:05:22;;;;;;;7.05;6.32;;;12.50;99.90;;;;;;5079489;28;20183;-82
2023/08/29 01:07:51;;;;;;;7.70;5.80;;;12.50;99.90;;;;;;5079350;28;20169;-82
2023/08/29 01:10:20;;;;;;;6.38;5.78;;;12.40;99.90;;;;;;5081434;28;20190;-82
2023/08/29 01:12:56;;;;;;;9.02;6.22;;;12.30;99.90;;;;;;5079452;28;20257;-83
2023/08/29 01:15:27;;;;;;;6.10;5.50;;;12.30;99.90;;;;;;5079607;28;20181;-82
2023/08/29 01:17:58;;;;;;;7.05;5.70;;;12.30;99.90;;;;;;5078767;28;20660;-83
2023/08/29 01:20:27;;;;;;;11.00;6.22;;;12.40;99.90;;;;;;5088745;28;20288;-83
2023/08/29 01:23:23;;;;;;;8.10;7.30;;;12.40;99.90;;;;;;5087673;28;20201;-83
2023/08/29 01:25:55;;;;;;;8.30;7.03;;;12.40;99.90;;;;;;5088004;28;20192;-83
2023/08/29 01:28:23;;;;;;;8.38;7.25;;;12.40;99.90;;;;;;5086138;28;20756;-83
2023/08/29 01:30:49;;;;;;;11.85;8.52;;;12.40;99.90;;;;;;5079123;28;20324;-83
2023/08/29 01:33:15;;;;;;;11.75;9.60;;;12.40;99.90;;;;;;5079589;28;20189;-82
2023/08/29 01:35:46;;;;;;;11.20;8.80;;;12.40;99.90;;;;;;5078861;28;20596;-83
2023/08/29 01:38:12;;;;;;;10.02;9.02;;;12.40;99.90;;;;;;5081232;28;20675;-83
2023/08/29 01:40:39;;;;;;;11.18;8.90;;;12.40;99.90;;;;;;5082802;28;20198;-83
2023/08/29 01:43:05;;;;;;;11.13;10.02;;;12.40;99.90;;;;;;5082214;28;20201;-83
2023/08/29 01:45:30;;;;;;;10.82;7.63;;;12.40;99.90;;;;;;5085540;28;20560;-83
2023/08/29 01:47:56;;;;;;;10.27;7.03;;;12.40;99.90;;;;;;5090990;28;20180;-83
2023/08/29 01:50:23;;;;;;;9.13;8.00;;;12.30;99.90;;;;;;5087316;28;20201;-83
2023/08/29 01:52:49;;;;;;;10.30;7.30;;;12.30;99.90;;;;;;5088749;28;20177;-83
2023/08/29 01:55:15;;;;;;;10.95;8.00;;;12.20;99.90;;;;;;5088533;28;20246;-83
2023/08/29 01:57:44;;;;;;;11.40;7.10;;;12.20;99.90;;;;;;5087700;28;20178;-82
2023/08/29 02:00:11;;;;;;;11.75;7.25;;;12.20;99.90;;;;;;5087400;28;20198;-83
2023/08/29 02:02:38;;;;;;;8.32;6.97;;;12.10;99.90;;;;;;5088263;28;20206;-83
2023/08/29 02:05:04;;;;;;;7.80;7.00;;;12.00;99.90;;;;;;5088261;28;20174;-82
2023/08/29 02:07:30;;;;;;;9.98;7.93;;;12.00;99.90;;;;;;5090270;28;20166;-82
2023/08/29 02:09:56;;;;;;;9.98;6.90;;;12.00;99.90;;;;;;5088568;28;20204;-82
2023/08/29 02:12:21;;;;;;;7.07;6.20;;;12.00;99.90;;;;;;5088852;28;20185;-82
2023/08/29 02:14:47;;;;;;;9.55;6.45;;;12.00;99.90;;;;;;5096468;28;20188;-82
2023/08/29 02:17:13;;;;;;;7.25;6.55;;;12.00;99.90;;;;;;5094682;28;20189;-82
2023/08/29 02:19:39;;;;;;;7.78;6.25;;;12.00;99.90;;;;;;5087603;28;20287;-82
2023/08/29 02:22:04;;;;;;;6.65;6.05;;;12.10;99.90;;;;;;5089647;28;20219;-83
2023/08/29 02:24:30;;;;;;;6.50;5.82;;;12.00;99.90;;;;;;5089121;28;20219;-83
2023/08/29 02:26:56;;;;;;;7.93;6.70;;;12.00;99.90;;;;;;5087657;28;20249;-83
2023/08/29 02:29:21;;;;;;;7.22;5.95;;;11.90;99.90;;;;;;5090226;28;20181;-83
2023/08/29 02:31:47;;;;;;;12.00;6.28;;;11.90;99.90;;;;;;5088759;28;20284;-83
2023/08/29 02:34:13;;;;;;;10.35;6.70;;;11.90;99.90;;;;;;5090585;28;20215;-82
2023/08/29 02:36:39;;;;;;;8.95;7.55;;;12.00;99.90;;;;;;5087671;28;20569;-83
2023/08/29 02:39:04;;;;;;;8.52;7.30;;;12.00;99.90;;;;;;5087321;28;20177;-83
2023/08/29 02:41:30;;;;;;;7.55;6.78;;;12.10;99.90;;;;;;5084624;28;20202;-83
2023/08/29 02:43:56;;;;;;;7.20;5.97;;;12.10;99.90;;;;;;5089154;28;20269;-83
2023/08/29 02:46:22;;;;;;;6.78;6.07;;;12.10;99.90;;;;;;5089840;28;20182;-83
2023/08/29 02:48:47;;;;;;;7.22;6.53;;;12.20;99.90;;;;;;5089959;28;20177;-83
2023/08/29 02:51:13;;;;;;;6.30;5.75;;;12.20;99.90;;;;;;5088376;28;20681;-83
2023/08/29 02:53:39;;;;;;;7.82;6.88;;;12.20;99.90;;;;;;5088024;28;20182;-83
2023/08/29 02:56:05;;;;;;;8.90;7.20;;;12.10;99.90;;;;;;5088053;28;20185;-83
2023/08/29 02:58:30;;;;;;;8.45;7.10;;;12.10;99.90;;;;;;5088996;28;20173;-83
2023/08/29 03:00:57;;;;;;;8.25;7.45;;;12.10;99.90;;;;;;5087244;28;20269;-83
2023/08/29 03:03:23;;;;;;;8.82;6.72;;;12.10;99.90;;;;;;5085373;28;20205;-82
2023/08/29 03:05:59;;;;;;;9.57;7.63;;;12.10;99.90;;;;;;5084715;28;20174;-81
2023/08/29 03:08:25;;;;;;;8.45;7.35;;;12.00;99.90;;;;;;5086038;28;20544;-81
2023/08/29 03:10:53;;;;;;;7.25;6.55;;;12.10;99.90;;;;;;5086475;28;20194;-82
2023/08/29 03:13:19;;;;;;;8.38;6.90;;;12.00;99.90;;;;;;5085807;28;20237;-81
2023/08/29 03:15:45;;;;;;;7.68;6.88;;;11.90;99.90;;;;;;5086578;28;20178;-81
2023/08/29 03:18:11;;;;;;;7.65;6.85;;;11.90;99.90;;;;;;5087136;28;20201;-81
2023/08/29 03:20:44;;;;;;;6.78;5.80;;;12.00;99.90;;;;;;5085322;28;20209;-82
2023/08/29 03:23:11;;;;;;;7.40;6.65;;;12.00;99.90;;;;;;5083963;28;20285;-82
2023/08/29 03:25:37;;;;;;;6.82;6.20;;;12.00;99.90;;;;;;5084496;28;20181;-82
2023/08/29 03:28:03;;;;;;;7.28;6.57;;;12.00;99.90;;;;;;5085881;28;20537;-81
2023/08/29 03:30:32;;;;;;;9.45;6.93;;;11.90;99.90;;;;;;5085826;28;20233;-82
2023/08/29 03:32:58;;;;;;;13.30;7.80;;;12.00;99.90;;;;;;5085724;28;20178;-82
2023/08/29 03:35:24;;;;;;;8.45;6.93;;;12.00;99.90;;;;;;5085566;28;20179;-82
2023/08/29 03:37:50;;;;;;;10.75;7.63;;;12.00;99.90;;;;;;5085727;28;20210;-82
2023/08/29 03:40:16;;;;;;;8.65;7.22;;;12.00;99.90;;;;;;5079883;28;20204;-79
2023/08/29 03:42:42;;;;;;;9.63;7.80;;;12.00;99.90;;;;;;5075828;28;20259;-79
2023/08/29 03:45:08;;;;;;;7.95;7.13;;;11.90;99.90;;;;;;5076647;28;20200;-80
2023/08/29 03:47:37;;;;;;;9.70;8.32;;;11.90;99.90;;;;;;5076446;28;20174;-80
2023/08/29 03:50:04;;;;;;;10.05;8.15;;;11.90;99.90;;;;;;5064110;28;20626;-80
2023/08/29 03:52:29;;;;;;;10.25;7.65;;;11.90;99.90;;;;;;5056579;28;20185;-80
2023/08/29 03:54:56;;;;;;;9.10;7.28;;;11.90;99.90;;;;;;5057278;28;20531;-80
2023/08/29 03:57:28;;;;;;;7.70;6.90;;;11.90;99.90;;;;;;5055812;28;20186;-80
2023/08/29 03:59:53;;;;;;;8.90;6.53;;;11.90;99.90;;;;;;5056176;28;20198;-80
2023/08/29 04:02:20;;;;;;;7.05;6.35;;;11.90;99.90;;;;;;5056982;28;20559;-80
2023/08/29 04:04:50;;;;;;;7.30;6.00;;;11.80;99.90;;;;;;5056627;28;20181;-80
2023/08/29 04:07:16;;;;;;;14.65;7.20;;;11.80;99.90;;;;;;5056374;28;20174;-79
2023/08/29 04:09:41;;;;;;;7.20;6.50;;;11.80;99.90;;;;;;5056374;28;20201;-80
2023/08/29 04:12:08;;;;;;;7.05;6.35;;;11.70;99.90;;;;;;5056993;28;20185;-79
2023/08/29 04:14:35;;;;;;;8.90;6.18;;;11.70;99.90;;;;;;5055807;28;20183;-80
2023/08/29 04:17:01;;;;;;;7.57;6.78;;;11.60;99.90;;;;;;5056215;28;20185;-80
2023/08/29 04:19:27;;;;;;;7.18;6.45;;;11.60;99.90;;;;;;5064169;28;20174;-80
2023/08/29 04:21:52;;;;;;;7.90;7.10;;;11.60;99.90;;;;;;5076329;28;20317;-80
2023/08/29 04:24:18;;;;;;;9.57;6.55;;;11.60;99.90;;;;;;5076352;28;20204;-80
2023/08/29 04:26:44;;;;;;;8.32;7.47;;;11.70;99.90;;;;;;5077981;28;20189;-79
2023/08/29 04:29:09;;;;;;;8.45;6.75;;;11.70;99.90;;;;;;5078196;28;20270;-80
2023/08/29 04:31:35;;;;;;;10.00;6.82;;;11.70;99.90;;;;;;5079216;28;20252;-80
2023/08/29 04:34:01;;;;;;;8.38;6.88;;;11.70;99.90;;;;;;5079403;28;20188;-80
2023/08/29 04:36:27;;;;;;;9.50;7.13;;;11.70;99.90;;;;;;5079021;28;20173;-80
2023/08/29 04:38:53;;;;;;;8.80;7.32;;;11.70;99.90;;;;;;5080665;28;20185;-81
2023/08/29 04:41:19;;;;;;;9.38;7.10;;;11.70;99.90;;;;;;5079643;28;20202;-80
2023/08/29 04:43:45;;;;;;;8.75;7.85;;;11.80;99.90;;;;;;5085392;28;20201;-79
2023/08/29 04:46:11;;;;;;;9.02;7.05;;;11.80;99.90;;;;;;5084982;28;20544;-80
2023/08/29 04:48:37;;;;;;;9.63;7.88;;;11.70;99.90;;;;;;5086857;28;20170;-79
2023/08/29 04:51:06;;;;;;;8.00;7.20;;;11.70;99.90;;;;;;5085506;28;20554;-80
2023/08/29 04:53:33;;;;;;;12.18;7.88;;;11.80;99.90;;;;;;5085945;28;20174;-80
2023/08/29 04:56:03;;;;;;;11.38;7.93;;;11.70;99.90;;;;;;5085538;28;20177;-80
2023/08/29 04:58:30;;;;;;;9.63;8.25;;;11.70;99.90;;;;;;5086663;28;20240;-79
2023/08/29 05:00:59;;;;;;;9.70;8.73;;;11.80;99.90;;;;;;5086341;28;20197;-80
2023/08/29 05:03:24;;;;;;;9.25;8.07;;;11.80;99.90;;;;;;5088979;28;20632;-81
2023/08/29 05:05:52;;;;;;;12.25;7.80;;;11.70;99.90;;;;;;5087695;28;20208;-80
2023/08/29 05:08:18;;;;;;;10.20;8.52;;;11.80;99.90;;;;;;5087631;28;20631;-80
2023/08/29 05:10:43;;;;;;;11.30;8.18;;;11.80;99.90;;;;;;5088709;28;20190;-80
2023/08/29 05:13:10;;;;;;;9.70;7.55;;;11.70;99.90;;;;;;5086956;28;20539;-80
2023/08/29 05:15:35;;;;;;;10.65;8.50;;;11.60;99.90;;;;;;5084186;28;20559;-79
2023/08/29 05:18:02;;;;;;;11.27;8.00;;;11.60;99.90;;;;;;5084085;28;20182;-80
2023/08/29 05:20:28;;;;;;;14.07;9.60;;;11.60;99.90;;;;;;5093676;28;20233;-81
2023/08/29 05:22:53;;;;;;;10.38;8.60;;;11.70;99.90;;;;;;5089991;28;20209;-80
2023/08/29 05:25:19;;;;;;;14.40;9.52;;;11.80;99.90;;;;;;5087685;28;20178;-80
2023/08/29 05:27:45;;;;;;;12.18;10.27;;;11.80;99.90;;;;;;5088671;28;20180;-79
2023/08/29 05:30:11;;;;;;;14.52;11.57;;;11.80;99.90;;;;;;5087055;28;20220;-79
2023/08/29 05:32:38;;;;;;;14.20;12.43;;;11.70;99.90;;;;;;5085943;28;20197;-80
2023/08/29 05:35:04;;;;;;;17.92;13.52;;;11.70;99.90;;;;;;5083754;28;20181;-79
2023/08/29 05:37:30;;;;;;;15.57;12.65;;;11.70;99.90;;;;;;5084145;28;20245;-80
2023/08/29 05:39:56;;;;;;;17.27;13.02;;;11.90;99.90;;;;;;5083401;28;20294;-80
2023/08/29 05:42:22;;;;;;;17.63;13.40;;;12.00;99.90;;;;;;5083302;28;20231;-79
2023/08/29 05:44:47;;;;;;;15.95;12.93;;;12.00;99.90;;;;;;5084626;28;20646;-80
2023/08/29 05:47:13;;;;;;;19.27;14.77;;;12.00;99.90;;;;;;5084573;28;20177;-80
2023/08/29 05:49:39;;;;;;;18.13;14.32;;;11.90;99.90;;;;;;5082596;28;20201;-80
2023/08/29 05:52:05;;;;;;;18.33;14.82;;;11.90;99.90;;;;;;5082050;28;20170;-80
2023/08/29 05:54:31;;;;;;;16.90;14.50;;;11.90;99.90;;;;;;5080556;28;20181;-80
2023/08/29 05:56:57;;;;;;;20.77;15.55;;;11.80;99.90;;;;;;5082211;28;20185;-79
2023/08/29 05:59:22;;;;;;;19.75;14.18;;;11.90;99.90;;;;;;5081300;28;20182;-79
2023/08/29 06:01:48;;;;;;;21.48;15.30;;;11.90;99.90;;;;;;5081127;28;20182;-80
2023/08/29 06:04:14;;;;;;;19.23;14.50;;;12.00;99.90;;;;;;5081921;28;20539;-80
2023/08/29 06:06:40;;;;;;;20.98;15.02;;;11.90;99.90;;;;;;5081912;28;20174;-80
2023/08/29 06:09:10;;;;;;;20.38;15.07;;;11.90;99.90;;;;;;5080300;28;20180;-80
2023/08/29 06:11:36;;;;;;;19.10;15.30;;;11.90;99.90;;;;;;5080472;28;20221;-80
2023/08/29 06:14:02;;;;;;;24.45;16.17;;;12.00;99.90;;;;;;5079492;28;20174;-80
2023/08/29 06:16:27;;;;;;;21.27;15.52;;;12.00;99.90;;;;;;5082086;28;20207;-80
2023/08/29 06:18:53;;;;;;;20.90;16.65;;;12.10;99.90;;;;;;5081736;28;20181;-80
2023/08/29 06:21:19;;;;;;;23.38;17.73;;;12.20;99.90;;;;;;5082369;28;20194;-80
2023/08/29 06:23:45;;;;;;;23.60;17.85;;;12.20;99.90;;;;;;5080071;28;20201;-80
2023/08/29 06:26:11;;;;;;;23.38;18.15;;;12.20;99.90;;;;;;5081087;28;20527;-80
2023/08/29 06:28:37;;;;;;;23.73;17.92;;;12.20;99.90;;;;;;5078954;28;20182;-79
2023/08/29 06:31:04;;;;;;;26.20;19.58;;;12.20;99.90;;;;;;5080365;28;20201;-79
2023/08/29 06:33:31;;;;;;;25.52;19.55;;;12.20;99.90;;;;;;5078966;28;20197;-79
2023/08/29 06:35:57;;;;;;;23.85;18.80;;;12.20;99.90;;;;;;5081106;28;20178;-80
2023/08/29 06:38:23;;;;;;;24.98;19.65;;;12.20;99.90;;;;;;5081105;28;20185;-80
2023/08/29 06:40:56;;;;;;;28.05;21.00;;;12.30;99.90;;;;;;5081986;28;20198;-80
2023/08/29 06:43:23;;;;;;;27.35;20.20;;;12.20;99.90;;;;;;5083817;28;20232;-79
2023/08/29 06:45:49;;;;;;;24.83;19.08;;;12.30;99.90;;;;;;5085719;28;20181;-80
2023/08/29 06:48:15;;;;;;;26.58;20.70;;;12.40;99.90;;;;;;5087466;28;20169;-80
2023/08/29 06:50:41;;;;;;;27.25;19.20;;;12.50;99.90;;;;;;5086468;28;20655;-79
2023/08/29 06:53:07;;;;;;;25.23;20.25;;;12.50;99.90;;;;;;5080224;28;20189;-80
2023/08/29 06:55:34;;;;;;;30.88;20.60;;;12.60;99.90;;;;;;5077739;28;20551;-80
2023/08/29 06:58:06;;;;;;;31.73;20.65;;;12.60;99.90;;;;;;5076719;28;20177;-80
2023/08/29 07:00:33;;;;;;;27.00;20.27;;;12.60;99.90;;;;;;5080082;28;20198;-80
2023/08/29 07:03:00;;;;;;;27.25;20.45;;;12.70;99.90;;;;;;5077506;28;20758;-79
2023/08/29 07:05:26;;;;;;;33.25;22.35;;;12.70;99.90;;;;;;5077278;28;20178;-79
2023/08/29 07:07:55;;;;;;;35.78;22.65;;;12.70;99.90;;;;;;5080153;28;20178;-79
2023/08/29 07:10:24;;;;;;;30.90;21.90;;;12.80;99.90;;;;;;5085328;28;20205;-80
2023/08/29 07:12:50;;;;;;;32.85;22.70;;;12.90;99.90;;;;;;5080895;28;20181;-79
2023/08/29 07:15:16;;;;;;;33.03;23.60;;;13.00;99.90;;;;;;5084254;28;20665;-80
2023/08/29 07:17:42;;;;;;;32.53;23.42;;;13.00;99.90;;;;;;5084290;28;20223;-80
2023/08/29 07:20:10;;;;;;;35.30;25.15;;;13.00;99.90;;;;;;5081506;28;20267;-79
2023/08/29 07:22:41;;;;;;;33.47;23.38;;;13.10;99.90;;;;;;5082784;28;20232;-80
2023/08/29 07:25:08;;;;;;;34.72;24.40;;;13.20;99.90;;;;;;5077895;28;20173;-79
2023/08/29 07:27:34;;;;;;;35.63;25.00;;;13.30;99.90;;;;;;5083396;28;20178;-79
2023/08/29 07:30:01;;;;;;;30.38;23.27;;;13.30;99.90;;;;;;5080289;28;20236;-78
2023/08/29 07:32:28;;;;;;;34.33;24.73;;;13.40;99.90;;;;;;5076286;28;20544;-78
2023/08/29 07:34:56;;;;;;;39.65;26.38;;;13.40;99.90;;;;;;5076537;28;20185;-78
2023/08/29 07:37:23;;;;;;;35.42;25.48;;;13.40;99.90;;;;;;5075645;28;20174;-78
2023/08/29 07:39:49;;;;;;;36.67;26.75;;;13.40;99.90;;;;;;5077564;28;20189;-78
2023/08/29 07:42:16;;;;;;;35.90;26.65;;;13.60;99.90;;;;;;5076597;28;20184;-78
2023/08/29 07:44:43;;;;;;;35.58;24.73;;;13.60;99.90;;;;;;5076496;28;20236;-78
2023/08/29 07:47:09;;;;;;;37.10;26.73;;;13.80;99.90;;;;;;5077463;28;20193;-78
2023/08/29 07:49:35;;;;;;;38.00;28.05;;;13.90;99.90;;;;;;5075738;28;20208;-78
2023/08/29 07:52:02;;;;;;;35.70;27.95;;;13.80;99.90;;;;;;5075651;28;20178;-78
2023/08/29 07:54:28;;;;;;;38.25;26.65;;;13.80;99.90;;;;;;5073691;28;20177;-78
2023/08/29 07:56:54;;;;;;;36.40;25.67;;;13.90;99.90;;;;;;5072973;28;20178;-78
2023/08/29 07:59:20;;;;;;;33.97;24.83;;;14.00;99.90;;;;;;5072184;28;20219;-79
2023/08/29 08:01:48;;;;;;;42.35;29.23;;;14.10;99.90;;;;;;5073324;28;20178;-78
2023/08/29 08:04:13;;;;;;;50.10;31.85;;;14.10;99.90;;;;;;5073112;28;20205;-78
2023/08/29 08:06:39;;;;;;;41.72;28.27;;;14.20;99.90;;;;;;5074852;28;20164;-78
2023/08/29 08:09:06;;;;;;;53.55;33.25;;;14.30;99.90;;;;;;5072864;28;20178;-78
2023/08/29 08:11:32;;;;;;;54.13;33.17;;;14.40;99.90;;;;;;5074589;28;20194;-78
2023/08/29 08:13:57;;;;;;;58.13;35.58;;;14.50;99.90;;;;;;5072985;28;20548;-78
2023/08/29 08:16:23;;;;;;;53.53;32.90;;;14.60;99.90;;;;;;5071766;28;20684;-78
2023/08/29 08:18:49;;;;;;;62.08;36.05;;;14.60;99.90;;;;;;5073474;28;20170;-78
2023/08/29 08:21:15;;;;;;;61.20;34.88;;;14.70;99.90;;;;;;5072144;28;20251;-78
2023/08/29 08:23:40;;;;;;;57.33;36.22;;;14.80;99.90;;;;;;5072048;28;20217;-78
2023/08/29 08:26:06;;;;;;;63.83;37.80;;;14.70;99.90;;;;;;5072073;28;20207;-78
2023/08/29 08:28:32;;;;;;;65.15;38.92;;;14.70;99.90;;;;;;5073427;28;20170;-78
2023/08/29 08:30:58;;;;;;;59.97;37.90;;;14.70;99.90;;;;;;5071775;28;20236;-78
2023/08/29 08:33:27;;;;;;;64.57;36.47;;;14.70;99.90;;;;;;5071980;28;20227;-78
2023/08/29 08:35:52;;;;;;;62.15;37.05;;;14.80;99.90;;;;;;5072337;28;20210;-79
2023/08/29 08:38:18;;;;;;;59.53;36.63;;;14.80;99.90;;;;;;5075286;28;20189;-78
2023/08/29 08:40:44;;;;;;;70.57;41.30;;;14.90;99.90;;;;;;5073418;28;20262;-78
2023/08/29 08:43:10;;;;;;;70.97;40.47;;;15.00;99.90;;;;;;5074987;28;20737;-78
2023/08/29 08:45:39;;;;;;;67.45;39.53;;;14.90;99.90;;;;;;5076090;28;20170;-78
2023/08/29 08:48:06;;;;;;;67.80;40.75;;;14.90;99.90;;;;;;5075290;28;20170;-80
2023/08/29 08:50:32;;;;;;;63.40;39.20;;;14.90;99.90;;;;;;5076136;28;20198;-80
2023/08/29 08:53:00;;;;;;;67.20;40.38;;;14.90;99.90;;;;;;5075007;28;20181;-79
2023/08/29 08:55:27;;;;;;;60.92;37.30;;;15.00;99.90;;;;;;5073601;28;20181;-79
2023/08/29 08:57:53;;;;;;;66.50;39.67;;;15.00;99.90;;;;;;5078735;28;20516;-80
2023/08/29 09:00:22;;;;;;;60.33;37.53;;;15.00;99.90;;;;;;5079186;28;20215;-80
2023/08/29 09:02:49;;;;;;;52.65;35.97;;;15.10;99.90;;;;;;5073706;28;20201;-78
2023/08/29 09:05:15;;;;;;;57.35;36.75;;;15.10;99.90;;;;;;5073657;28;20174;-81
2023/08/29 09:07:41;;;;;;;56.40;35.85;;;15.20;99.90;;;;;;5078277;28;20311;-81
2023/08/29 09:10:12;;;;;;;53.67;35.97;;;15.20;99.90;;;;;;5080630;28;20193;-81
2023/08/29 09:12:52;;;;;;;60.33;37.75;;;15.30;99.90;;;;;;5081902;28;20181;-80
2023/08/29 09:15:19;;;;;;;49.15;31.67;;;15.30;99.90;;;;;;5082684;28;20173;-81
2023/08/29 09:17:46;;;;;;;51.00;35.38;;;15.30;99.90;;;;;;5083706;28;20181;-81
2023/08/29 09:20:12;;;;;;;58.47;37.15;;;15.40;99.90;;;;;;5084443;28;20653;-80
2023/08/29 09:22:45;;;;;;;51.40;33.05;;;15.40;99.90;;;;;;5085703;28;20219;-81
2023/08/29 09:25:11;;;;;;;48.83;31.48;;;15.40;99.90;;;;;;5082576;28;20174;-80
2023/08/29 09:27:48;;;;;;;44.22;30.45;;;15.40;99.90;;;;;;5077309;28;20661;-80
2023/08/29 09:30:16;;;;;;;45.88;30.17;;;15.50;99.90;;;;;;5077999;28;20212;-80
2023/08/29 09:32:44;;;;;;;41.95;29.58;;;15.70;99.90;;;;;;5077472;28;20174;-80
2023/08/29 09:35:15;;;;;;;40.95;28.73;;;15.80;99.90;;;;;;5077536;28;20261;-80
2023/08/29 09:37:50;;;;;;;38.75;28.33;;;15.90;99.90;;;;;;5077060;28;20251;-80
2023/08/29 09:40:20;;;;;;;39.40;30.38;;;16.10;99.90;;;;;;5077555;28;20201;-80
2023/08/29 09:43:13;;;;;;;40.75;30.25;;;16.20;99.90;;;;;;5076987;28;20197;-80
2023/08/29 09:45:39;;;;;;;37.75;27.80;;;16.20;99.90;;;;;;5078954;28;20273;-81
2023/08/29 09:48:08;;;;;;;36.20;26.35;;;16.30;99.90;;;;;;5078944;28;20230;-81
2023/08/29 09:50:35;;;;;;;40.63;29.58;;;16.40;99.90;;;;;;5078742;28;20288;-80
2023/08/29 09:53:02;;;;;;;33.13;25.75;;;16.40;99.90;;;;;;5080707;28;20184;-81
2023/08/29 09:55:44;;;;;;;33.50;25.85;;;16.60;99.90;;;;;;5079345;28;20181;-81
2023/08/29 09:58:11;;;;;;;41.58;27.48;;;16.70;99.90;;;;;;5079809;28;20173;-80
2023/08/29 10:00:38;;;;;;;37.30;28.63;;;16.90;99.90;;;;;;5077504;28;20206;-80
2023/08/29 10:03:08;;;;;;;35.42;28.23;;;17.00;99.90;;;;;;5077344;28;20567;-81
2023/08/29 10:05:36;;;;;;;41.80;29.42;;;17.10;99.90;;;;;;5081379;28;20146;-81
2023/08/29 10:08:16;;;;;;;42.63;29.83;;;17.20;99.90;;;;;;5078767;28;20173;-81
2023/08/29 10:10:43;;;;;;;39.40;30.13;;;17.20;99.90;;;;;;5078140;28;20725;-80
2023/08/29 10:13:11;;;;;;;38.58;29.25;;;17.30;99.90;;;;;;5077134;28;20680;-80
2023/08/29 10:15:39;;;;;;;41.20;30.50;;;17.50;99.90;;;;;;5077635;28;20186;-80
2023/08/29 10:18:06;;;;;;;37.28;28.80;;;17.60;99.90;;;;;;5079579;28;20170;-80
2023/08/29 10:20:33;;;;;;;39.13;28.85;;;17.80;99.90;;;;;;5076683;28;20212;-80
2023/08/29 10:23:01;;;;;;;40.13;29.55;;;17.90;99.90;;;;;;5078025;28;20231;-80
2023/08/29 10:25:28;;;;;;;37.05;28.13;;;18.10;99.90;;;;;;5079416;28;20177;-81
2023/08/29 10:27:55;;;;;;;38.22;27.75;;;18.10;99.90;;;;;;5080297;28;20190;-79
2023/08/29 10:30:25;;;;;;;35.30;27.40;;;18.30;99.90;;;;;;5074157;28;20213;-78
2023/08/29 10:32:53;;;;;;;33.20;28.00;;;18.40;99.90;;;;;;5075949;28;20166;-78
2023/08/29 10:35:22;;;;;;;32.05;25.33;;;18.60;99.90;;;;;;5074157;28;20173;-78
2023/08/29 10:37:52;;;;;;;32.10;24.40;;;18.90;99.90;;;;;;5074731;28;20669;-78
2023/08/29 10:40:19;;;;;;;29.98;22.65;;;19.10;99.90;;;;;;5075523;28;20197;-78
2023/08/29 10:42:57;;;;;;;34.20;26.02;;;19.10;99.90;;;;;;5074089;28;20231;-79
2023/08/29 10:45:54;;;;;;;28.55;22.58;;;19.10;99.90;;;;;;5075054;28;20170;-78
2023/08/29 10:48:39;;;;;;;33.10;25.35;;;19.30;99.90;;;;;;5074394;28;20197;-78
2023/08/29 10:51:12;;;;;;;34.72;27.02;;;19.50;99.90;;;;;;5073904;28;20198;-78
2023/08/29 10:53:49;;;;;;;27.85;20.98;;;19.40;99.90;;;;;;5074305;28;20654;-78
2023/08/29 10:56:17;;;;;;;36.50;27.52;;;19.50;99.90;;;;;;5074556;28;20177;-79
2023/08/29 10:58:45;;;;;;;35.60;25.67;;;19.60;99.90;;;;;;5075889;28;20529;-79
2023/08/29 11:01:28;;;;;;;29.08;22.55;;;19.70;99.90;;;;;;5073562;28;20197;-78
2023/08/29 11:03:59;;;;;;;24.17;19.25;;;19.80;99.90;;;;;;5073294;28;20192;-78
2023/08/29 11:06:27;;;;;;;26.17;20.67;;;20.20;99.90;;;;;;5073348;28;20256;-78
2023/08/29 11:09:15;;;;;;;28.85;22.88;;;20.70;99.90;;;;;;5073529;28;20161;-78
2023/08/29 11:11:41;;;;;;;28.30;21.08;;;20.90;1.00;;;;;;5074184;28;20201;-78
2023/08/29 11:14:07;;;;;;;24.65;20.25;;;21.00;1.00;;;;;;5072715;28;20186;-78
2023/08/29 11:16:35;;;;;;;24.80;18.60;;;20.80;1.00;;;;;;5073155;28;20178;-78
2023/08/29 11:19:12;;;;;;;25.50;20.23;;;20.70;97.40;;;;;;5069776;28;20274;-78
2023/08/29 11:21:38;;;;;;;22.73;18.08;;;20.60;99.90;;;;;;5055196;28;20276;-78
2023/08/29 11:24:05;;;;;;;25.38;20.08;;;20.40;99.90;;;;;;5054226;28;20682;-78
2023/08/29 11:26:35;;;;;;;25.58;19.40;;;20.20;99.90;;;;;;5054549;28;20544;-79
2023/08/29 11:29:01;;;;;;;25.80;21.65;;;20.00;99.90;;;;;;5055266;28;20171;-80
2023/08/29 11:31:29;;;;;;;24.63;18.33;;;19.80;99.90;;;;;;5057341;28;20213;-79
2023/08/29 11:33:55;;;;;;;23.30;17.98;;;19.70;99.90;;;;;;5057598;28;20661;-80
2023/08/29 11:36:21;;;;;;;18.10;15.65;;;19.60;99.90;;;;;;5058034;28;20179;-80
2023/08/29 11:38:46;;;;;;;24.45;20.67;;;19.70;99.90;;;;;;5058366;28;20256;-80
2023/08/29 11:41:14;;;;;;;27.80;19.30;;;19.70;99.90;;;;;;5059292;28;20198;-80
2023/08/29 11:43:40;;;;;;;20.75;16.83;;;19.30;99.90;;;;;;5058555;28;20202;-80
2023/08/29 11:46:06;;;;;;;24.30;19.13;;;19.20;99.90;;;;;;5059282;28;20645;-80
2023/08/29 11:48:33;;;;;;;26.40;20.08;;;18.90;99.90;;;;;;5059766;28;20657;-80
2023/08/29 11:51:04;;;;;;;21.52;17.15;;;18.80;99.90;;;;;;5077664;28;20205;-80
2023/08/29 11:53:32;;;;;;;23.40;17.98;;;18.70;99.90;;;;;;5079132;28;20185;-80
2023/08/29 11:56:00;;;;;;;24.50;20.30;;;18.60;99.90;;;;;;5078079;28;20181;-80
2023/08/29 11:58:36;;;;;;;23.80;18.15;;;18.50;99.90;;;;;;5077903;28;20182;-80
2023/08/29 12:01:04;;;;;;;23.02;17.45;;;18.40;99.90;;;;;;5078161;28;20681;-81
2023/08/29 12:03:34;;;;;;;17.92;14.65;;;18.30;99.90;;;;;;5077838;28;20292;-81
2023/08/29 12:06:00;;;;;;;19.23;14.70;;;18.30;99.90;;;;;;5079736;28;20230;-81
2023/08/29 12:08:39;;;;;;;14.13;11.65;;;18.30;99.90;;;;;;5077651;28;20180;-81
2023/08/29 12:11:06;;;;;;;15.02;13.25;;;18.20;99.90;;;;;;5080225;28;20213;-80
2023/08/29 12:13:34;;;;;;;17.70;14.63;;;18.30;99.90;;;;;;5079762;28;20199;-80
2023/08/29 12:16:02;;;;;;;18.95;13.90;;;18.40;99.90;;;;;;5080550;28;20207;-81
2023/08/29 12:18:28;;;;;;;17.13;14.63;;;18.50;99.90;;;;;;5080459;28;20178;-80
2023/08/29 12:21:14;;;;;;;16.45;12.32;;;18.70;99.90;;;;;;5080094;28;20212;-80
2023/08/29 12:23:40;;;;;;;14.77;12.57;;;18.90;85.60;;;;;;5081463;28;20670;-80
2023/08/29 12:26:07;;;;;;;16.58;12.07;;;19.20;99.90;;;;;;5078665;28;20703;-80
2023/08/29 12:28:33;;;;;;;20.25;14.38;;;19.70;99.90;;;;;;5083815;28;20733;-80
2023/08/29 12:30:58;;;;;;;15.52;12.60;;;20.20;1.00;;;;;;5081051;28;20233;-80
2023/08/29 12:33:24;;;;;;;13.52;11.88;;;20.50;1.00;;;;;;5080126;28;20535;-79
2023/08/29 12:35:51;;;;;;;14.10;10.90;;;20.70;92.20;;;;;;5080579;28;20174;-80
2023/08/29 12:38:18;;;;;;;14.40;9.80;;;20.80;99.90;;;;;;5080626;28;20157;-80